sensor_id;sensor_type;location;lat;lon;timestamp;P1;durP1;ratioP1;P2;durP2;ratioP2
19199;SDS011;9732;52.498;5.408;2022-11-11T00:02:05;21.33;;;7.25;;
19199;SDS011;9732;52.498;5.408;2022-11-11T00:04:32;14.68;;;6.85;;
19199;SDS011;9732;52.498;5.408;2022-11-11T00:06:58;17.10;;;7.07;;
19199;SDS011;9732;52.498;5.408;2022-11-11T00:09:25;16.35;;;6.97;;
19199;SDS011;9732;52.498;5.408;2022-11-11T00:11:54;19.45;;;6.85;;
19199;SDS011;9732;52.498;5.408;2022-11-11T00:14:21;14.75;;;7.10;;
19199;SDS011;9732;52.498;5.408;2022-11-11T00:16:48;19.77;;;7.18;;
19199;SDS011;9732;52.498;5.408;2022-11-11T00:19:32;18.80;;;7.35;;
19199;SDS011;9732;52.498;5.408;2022-11-11T00:22:20;14.15;;;7.32;;
19199;SDS011;9732;52.498;5.408;2022-11-11T00:25:05;15.98;;;8.10;;
19199;SDS011;9732;52.498;5.408;2022-11-11T00:27:34;19.30;;;7.88;;
19199;SDS011;9732;52.498;5.408;2022-11-11T00:30:04;14.77;;;8.30;;
19199;SDS011;9732;52.498;5.408;2022-11-11T00:32:31;20.08;;;9.27;;
19199;SDS011;9732;52.498;5.408;2022-11-11T00:34:58;17.98;;;7.78;;
19199;SDS011;9732;52.498;5.408;2022-11-11T00:37:43;19.07;;;8.30;;
19199;SDS011;9732;52.498;5.408;2022-11-11T00:40:12;20.45;;;9.00;;
19199;SDS011;9732;52.498;5.408;2022-11-11T00:42:41;23.27;;;9.48;;
19199;SDS011;9732;52.498;5.408;2022-11-11T00:45:08;21.05;;;9.80;;
19199;SDS011;9732;52.498;5.408;2022-11-11T00:47:36;20.90;;;9.68;;
19199;SDS011;9732;52.498;5.408;2022-11-11T00:50:21;24.90;;;11.68;;
19199;SDS011;9732;52.498;5.408;2022-11-11T00:53:08;23.47;;;10.23;;
19199;SDS011;9732;52.498;5.408;2022-11-11T00:55:36;25.10;;;10.77;;
19199;SDS011;9732;52.498;5.408;2022-11-11T00:58:04;20.10;;;10.75;;
19199;SDS011;9732;52.498;5.408;2022-11-11T01:00:31;32.70;;;11.70;;
19199;SDS011;9732;52.498;5.408;2022-11-11T01:02:58;28.92;;;12.07;;
19199;SDS011;9732;52.498;5.408;2022-11-11T01:05:25;30.90;;;12.73;;
19199;SDS011;9732;52.498;5.408;2022-11-11T01:07:52;25.83;;;11.93;;
19199;SDS011;9732;52.498;5.408;2022-11-11T01:10:20;28.85;;;13.32;;
19199;SDS011;9732;52.498;5.408;2022-11-11T01:13:04;21.92;;;12.32;;
19199;SDS011;9732;52.498;5.408;2022-11-11T01:15:39;26.17;;;13.83;;
19199;SDS011;9732;52.498;5.408;2022-11-11T01:18:06;28.23;;;14.13;;
19199;SDS011;9732;52.498;5.408;2022-11-11T01:20:34;29.53;;;14.70;;
19199;SDS011;9732;52.498;5.408;2022-11-11T01:23:01;30.00;;;15.73;;
19199;SDS011;9732;52.498;5.408;2022-11-11T01:25:31;30.47;;;15.53;;
19199;SDS011;9732;52.498;5.408;2022-11-11T01:27:58;31.50;;;15.17;;
19199;SDS011;9732;52.498;5.408;2022-11-11T01:30:26;33.10;;;15.83;;
19199;SDS011;9732;52.498;5.408;2022-11-11T01:32:53;32.17;;;16.30;;
19199;SDS011;9732;52.498;5.408;2022-11-11T01:35:20;31.57;;;15.57;;
19199;SDS011;9732;52.498;5.408;2022-11-11T01:37:47;32.53;;;15.17;;
19199;SDS011;9732;52.498;5.408;2022-11-11T01:40:14;28.80;;;15.67;;
19199;SDS011;9732;52.498;5.408;2022-11-11T01:42:45;27.90;;;15.40;;
19199;SDS011;9732;52.498;5.408;2022-11-11T01:48:16;29.37;;;15.80;;
19199;SDS011;9732;52.498;5.408;2022-11-11T01:51:02;40.13;;;17.47;;
19199;SDS011;9732;52.498;5.408;2022-11-11T01:53:31;36.23;;;17.53;;
19199;SDS011;9732;52.498;5.408;2022-11-11T01:55:58;41.27;;;18.57;;
19199;SDS011;9732;52.498;5.408;2022-11-11T01:58:26;34.23;;;16.10;;
19199;SDS011;9732;52.498;5.408;2022-11-11T02:00:55;42.73;;;19.10;;
19199;SDS011;9732;52.498;5.408;2022-11-11T02:03:22;35.30;;;18.10;;
19199;SDS011;9732;52.498;5.408;2022-11-11T02:05:52;36.63;;;17.10;;
19199;SDS011;9732;52.498;5.408;2022-11-11T02:08:23;35.77;;;18.70;;
19199;SDS011;9732;52.498;5.408;2022-11-11T02:10:59;29.57;;;17.67;;
19199;SDS011;9732;52.498;5.408;2022-11-11T02:13:31;34.97;;;18.77;;
19199;SDS011;9732;52.498;5.408;2022-11-11T02:16:22;33.33;;;17.57;;
19199;SDS011;9732;52.498;5.408;2022-11-11T02:18:50;35.53;;;18.23;;
19199;SDS011;9732;52.498;5.408;2022-11-11T02:21:20;34.03;;;18.00;;
19199;SDS011;9732;52.498;5.408;2022-11-11T02:23:56;38.40;;;18.73;;
19199;SDS011;9732;52.498;5.408;2022-11-11T02:26:29;42.10;;;18.27;;
19199;SDS011;9732;52.498;5.408;2022-11-11T02:28:58;39.77;;;19.03;;
19199;SDS011;9732;52.498;5.408;2022-11-11T02:31:27;43.07;;;19.43;;
19199;SDS011;9732;52.498;5.408;2022-11-11T02:33:55;39.03;;;19.63;;
19199;SDS011;9732;52.498;5.408;2022-11-11T02:36:22;38.17;;;19.93;;
19199;SDS011;9732;52.498;5.408;2022-11-11T02:38:49;37.20;;;19.30;;
19199;SDS011;9732;52.498;5.408;2022-11-11T02:41:19;41.17;;;20.27;;
19199;SDS011;9732;52.498;5.408;2022-11-11T02:44:04;36.23;;;18.53;;
19199;SDS011;9732;52.498;5.408;2022-11-11T02:46:32;39.93;;;19.37;;
19199;SDS011;9732;52.498;5.408;2022-11-11T02:49:00;36.80;;;17.50;;
19199;SDS011;9732;52.498;5.408;2022-11-11T02:51:28;39.33;;;17.83;;
19199;SDS011;9732;52.498;5.408;2022-11-11T02:53:57;36.80;;;19.77;;
19199;SDS011;9732;52.498;5.408;2022-11-11T02:56:26;42.27;;;19.43;;
19199;SDS011;9732;52.498;5.408;2022-11-11T02:59:10;40.00;;;18.27;;
19199;SDS011;9732;52.498;5.408;2022-11-11T03:01:37;39.83;;;18.90;;
19199;SDS011;9732;52.498;5.408;2022-11-11T03:04:04;44.03;;;19.07;;
19199;SDS011;9732;52.498;5.408;2022-11-11T03:06:31;40.43;;;20.97;;
19199;SDS011;9732;52.498;5.408;2022-11-11T03:08:58;42.10;;;19.83;;
19199;SDS011;9732;52.498;5.408;2022-11-11T03:11:26;41.77;;;19.83;;
19199;SDS011;9732;52.498;5.408;2022-11-11T03:13:53;43.93;;;19.43;;
19199;SDS011;9732;52.498;5.408;2022-11-11T03:16:20;41.20;;;18.90;;
19199;SDS011;9732;52.498;5.408;2022-11-11T03:19:04;44.83;;;20.20;;
19199;SDS011;9732;52.498;5.408;2022-11-11T03:21:31;38.17;;;20.17;;
19199;SDS011;9732;52.498;5.408;2022-11-11T03:23:58;39.90;;;18.80;;
19199;SDS011;9732;52.498;5.408;2022-11-11T03:26:26;36.60;;;18.63;;
19199;SDS011;9732;52.498;5.408;2022-11-11T03:28:53;42.87;;;20.87;;
19199;SDS011;9732;52.498;5.408;2022-11-11T03:31:20;46.80;;;20.53;;
19199;SDS011;9732;52.498;5.408;2022-11-11T03:33:46;40.30;;;19.30;;
19199;SDS011;9732;52.498;5.408;2022-11-11T03:36:13;47.13;;;20.30;;
19199;SDS011;9732;52.498;5.408;2022-11-11T03:38:40;38.60;;;19.07;;
19199;SDS011;9732;52.498;5.408;2022-11-11T03:41:06;45.13;;;19.30;;
19199;SDS011;9732;52.498;5.408;2022-11-11T03:43:34;38.87;;;18.73;;
19199;SDS011;9732;52.498;5.408;2022-11-11T03:46:02;37.03;;;19.30;;
19199;SDS011;9732;52.498;5.408;2022-11-11T03:48:32;42.00;;;19.40;;
19199;SDS011;9732;52.498;5.408;2022-11-11T03:51:01;43.10;;;20.00;;
19199;SDS011;9732;52.498;5.408;2022-11-11T03:53:30;49.40;;;21.43;;
19199;SDS011;9732;52.498;5.408;2022-11-11T03:55:57;46.40;;;20.90;;
19199;SDS011;9732;52.498;5.408;2022-11-11T03:58:24;46.70;;;20.53;;
19199;SDS011;9732;52.498;5.408;2022-11-11T04:00:53;44.53;;;19.80;;
19199;SDS011;9732;52.498;5.408;2022-11-11T04:03:20;47.97;;;21.73;;
19199;SDS011;9732;52.498;5.408;2022-11-11T04:06:05;49.07;;;20.40;;
19199;SDS011;9732;52.498;5.408;2022-11-11T04:08:52;50.80;;;20.73;;
19199;SDS011;9732;52.498;5.408;2022-11-11T04:11:37;49.70;;;22.30;;
19199;SDS011;9732;52.498;5.408;2022-11-11T04:14:06;42.80;;;22.57;;
19199;SDS011;9732;52.498;5.408;2022-11-11T04:16:54;44.80;;;22.83;;
19199;SDS011;9732;52.498;5.408;2022-11-11T04:19:22;43.57;;;21.70;;
19199;SDS011;9732;52.498;5.408;2022-11-11T04:22:08;51.20;;;22.57;;
19199;SDS011;9732;52.498;5.408;2022-11-11T04:24:36;54.97;;;22.77;;
19199;SDS011;9732;52.498;5.408;2022-11-11T04:27:21;51.43;;;22.53;;
19199;SDS011;9732;52.498;5.408;2022-11-11T04:29:50;52.80;;;22.20;;
19199;SDS011;9732;52.498;5.408;2022-11-11T04:32:19;51.27;;;22.20;;
19199;SDS011;9732;52.498;5.408;2022-11-11T04:35:12;47.10;;;22.30;;
19199;SDS011;9732;52.498;5.408;2022-11-11T04:37:43;41.97;;;21.37;;
19199;SDS011;9732;52.498;5.408;2022-11-11T04:40:14;45.83;;;22.47;;
19199;SDS011;9732;52.498;5.408;2022-11-11T04:42:58;47.80;;;22.03;;
19199;SDS011;9732;52.498;5.408;2022-11-11T04:45:25;45.80;;;22.23;;
19199;SDS011;9732;52.498;5.408;2022-11-11T04:47:56;45.00;;;20.73;;
19199;SDS011;9732;52.498;5.408;2022-11-11T04:50:26;40.10;;;21.33;;
19199;SDS011;9732;52.498;5.408;2022-11-11T04:52:56;56.47;;;23.00;;
19199;SDS011;9732;52.498;5.408;2022-11-11T04:55:24;51.83;;;22.37;;
19199;SDS011;9732;52.498;5.408;2022-11-11T04:58:09;48.90;;;21.70;;
19199;SDS011;9732;52.498;5.408;2022-11-11T05:00:37;48.90;;;23.60;;
19199;SDS011;9732;52.498;5.408;2022-11-11T05:03:06;48.20;;;22.93;;
19199;SDS011;9732;52.498;5.408;2022-11-11T05:05:42;46.97;;;21.30;;
19199;SDS011;9732;52.498;5.408;2022-11-11T05:08:29;51.30;;;22.73;;
19199;SDS011;9732;52.498;5.408;2022-11-11T05:11:14;50.03;;;23.33;;
19199;SDS011;9732;52.498;5.408;2022-11-11T05:13:42;45.33;;;21.33;;
19199;SDS011;9732;52.498;5.408;2022-11-11T05:16:30;49.23;;;22.63;;
19199;SDS011;9732;52.498;5.408;2022-11-11T05:19:18;53.60;;;22.30;;
19199;SDS011;9732;52.498;5.408;2022-11-11T05:22:05;47.07;;;21.73;;
19199;SDS011;9732;52.498;5.408;2022-11-11T05:24:36;49.43;;;22.00;;
19199;SDS011;9732;52.498;5.408;2022-11-11T05:27:21;51.07;;;22.70;;
19199;SDS011;9732;52.498;5.408;2022-11-11T05:29:48;50.37;;;22.10;;
19199;SDS011;9732;52.498;5.408;2022-11-11T05:32:15;44.87;;;21.17;;
19199;SDS011;9732;52.498;5.408;2022-11-11T05:34:45;45.60;;;22.50;;
19199;SDS011;9732;52.498;5.408;2022-11-11T05:37:13;51.13;;;24.23;;
19199;SDS011;9732;52.498;5.408;2022-11-11T05:39:42;49.43;;;22.83;;
19199;SDS011;9732;52.498;5.408;2022-11-11T05:42:11;50.53;;;21.90;;
19199;SDS011;9732;52.498;5.408;2022-11-11T05:44:38;50.67;;;22.47;;
19199;SDS011;9732;52.498;5.408;2022-11-11T05:47:04;49.00;;;21.53;;
19199;SDS011;9732;52.498;5.408;2022-11-11T05:49:31;42.73;;;22.30;;
19199;SDS011;9732;52.498;5.408;2022-11-11T05:52:00;51.67;;;20.93;;
19199;SDS011;9732;52.498;5.408;2022-11-11T05:54:28;47.53;;;22.07;;
19199;SDS011;9732;52.498;5.408;2022-11-11T05:56:54;44.50;;;21.80;;
19199;SDS011;9732;52.498;5.408;2022-11-11T05:59:22;46.57;;;22.77;;
19199;SDS011;9732;52.498;5.408;2022-11-11T06:01:48;49.13;;;21.80;;
19199;SDS011;9732;52.498;5.408;2022-11-11T06:04:15;49.47;;;21.93;;
19199;SDS011;9732;52.498;5.408;2022-11-11T06:06:42;50.07;;;23.03;;
19199;SDS011;9732;52.498;5.408;2022-11-11T06:09:10;45.00;;;21.90;;
19199;SDS011;9732;52.498;5.408;2022-11-11T06:11:37;48.70;;;22.43;;
19199;SDS011;9732;52.498;5.408;2022-11-11T06:14:04;46.40;;;22.30;;
19199;SDS011;9732;52.498;5.408;2022-11-11T06:16:31;43.57;;;22.10;;
19199;SDS011;9732;52.498;5.408;2022-11-11T06:18:58;48.23;;;22.10;;
19199;SDS011;9732;52.498;5.408;2022-11-11T06:21:28;46.00;;;21.70;;
19199;SDS011;9732;52.498;5.408;2022-11-11T06:23:56;44.43;;;21.53;;
19199;SDS011;9732;52.498;5.408;2022-11-11T06:26:26;49.20;;;21.87;;
19199;SDS011;9732;52.498;5.408;2022-11-11T06:28:57;46.80;;;23.07;;
19199;SDS011;9732;52.498;5.408;2022-11-11T06:31:24;48.40;;;23.33;;
19199;SDS011;9732;52.498;5.408;2022-11-11T06:33:52;55.00;;;23.73;;
19199;SDS011;9732;52.498;5.408;2022-11-11T06:36:20;44.23;;;21.73;;
19199;SDS011;9732;52.498;5.408;2022-11-11T06:38:47;49.67;;;23.27;;
19199;SDS011;9732;52.498;5.408;2022-11-11T06:41:14;43.67;;;22.17;;
19199;SDS011;9732;52.498;5.408;2022-11-11T06:43:42;45.40;;;22.90;;
19199;SDS011;9732;52.498;5.408;2022-11-11T06:46:10;52.87;;;21.70;;
19199;SDS011;9732;52.498;5.408;2022-11-11T06:48:43;49.03;;;22.27;;
19199;SDS011;9732;52.498;5.408;2022-11-11T06:51:14;50.87;;;22.00;;
19199;SDS011;9732;52.498;5.408;2022-11-11T06:53:44;43.17;;;21.13;;
19199;SDS011;9732;52.498;5.408;2022-11-11T06:56:11;53.57;;;22.63;;
19199;SDS011;9732;52.498;5.408;2022-11-11T06:58:37;47.30;;;22.33;;
19199;SDS011;9732;52.498;5.408;2022-11-11T07:01:06;54.60;;;22.53;;
19199;SDS011;9732;52.498;5.408;2022-11-11T07:03:33;48.27;;;22.33;;
19199;SDS011;9732;52.498;5.408;2022-11-11T07:06:01;50.93;;;22.73;;
19199;SDS011;9732;52.498;5.408;2022-11-11T07:08:30;49.43;;;22.00;;
19199;SDS011;9732;52.498;5.408;2022-11-11T07:10:58;46.20;;;21.30;;
19199;SDS011;9732;52.498;5.408;2022-11-11T07:13:26;44.37;;;22.03;;
19199;SDS011;9732;52.498;5.408;2022-11-11T07:15:54;50.10;;;21.23;;
19199;SDS011;9732;52.498;5.408;2022-11-11T07:18:25;47.87;;;21.63;;
19199;SDS011;9732;52.498;5.408;2022-11-11T07:20:54;50.40;;;22.27;;
19199;SDS011;9732;52.498;5.408;2022-11-11T07:23:21;51.83;;;22.47;;
19199;SDS011;9732;52.498;5.408;2022-11-11T07:25:48;45.90;;;21.80;;
19199;SDS011;9732;52.498;5.408;2022-11-11T07:28:15;42.60;;;20.93;;
19199;SDS011;9732;52.498;5.408;2022-11-11T07:30:41;44.27;;;21.27;;
19199;SDS011;9732;52.498;5.408;2022-11-11T07:33:08;42.40;;;19.63;;
19199;SDS011;9732;52.498;5.408;2022-11-11T07:35:36;45.67;;;22.10;;
19199;SDS011;9732;52.498;5.408;2022-11-11T07:38:03;43.50;;;19.77;;
19199;SDS011;9732;52.498;5.408;2022-11-11T07:40:30;52.70;;;21.50;;
19199;SDS011;9732;52.498;5.408;2022-11-11T07:42:56;43.50;;;19.83;;
19199;SDS011;9732;52.498;5.408;2022-11-11T07:45:23;50.00;;;20.57;;
19199;SDS011;9732;52.498;5.408;2022-11-11T07:47:50;44.13;;;20.67;;
19199;SDS011;9732;52.498;5.408;2022-11-11T07:50:16;47.17;;;20.10;;
19199;SDS011;9732;52.498;5.408;2022-11-11T07:52:48;48.43;;;22.03;;
19199;SDS011;9732;52.498;5.408;2022-11-11T07:55:16;45.93;;;20.80;;
19199;SDS011;9732;52.498;5.408;2022-11-11T07:57:43;51.43;;;21.90;;
19199;SDS011;9732;52.498;5.408;2022-11-11T08:00:10;43.30;;;20.13;;
19199;SDS011;9732;52.498;5.408;2022-11-11T08:02:38;38.27;;;19.17;;
19199;SDS011;9732;52.498;5.408;2022-11-11T08:05:05;42.80;;;19.67;;
19199;SDS011;9732;52.498;5.408;2022-11-11T08:07:32;43.70;;;20.53;;
19199;SDS011;9732;52.498;5.408;2022-11-11T08:10:01;39.87;;;19.73;;
19199;SDS011;9732;52.498;5.408;2022-11-11T08:12:28;40.43;;;20.53;;
19199;SDS011;9732;52.498;5.408;2022-11-11T08:15:12;40.97;;;19.37;;
19199;SDS011;9732;52.498;5.408;2022-11-11T08:17:39;43.73;;;19.90;;
19199;SDS011;9732;52.498;5.408;2022-11-11T08:20:06;41.57;;;19.27;;
19199;SDS011;9732;52.498;5.408;2022-11-11T08:22:35;42.13;;;19.97;;
19199;SDS011;9732;52.498;5.408;2022-11-11T08:25:04;44.20;;;20.23;;
19199;SDS011;9732;52.498;5.408;2022-11-11T08:27:32;44.27;;;19.30;;
19199;SDS011;9732;52.498;5.408;2022-11-11T08:30:01;36.10;;;17.87;;
19199;SDS011;9732;52.498;5.408;2022-11-11T08:32:29;39.90;;;18.80;;
19199;SDS011;9732;52.498;5.408;2022-11-11T08:34:56;39.47;;;19.37;;
19199;SDS011;9732;52.498;5.408;2022-11-11T08:37:23;32.93;;;17.20;;
19199;SDS011;9732;52.498;5.408;2022-11-11T08:39:49;39.07;;;18.13;;
19199;SDS011;9732;52.498;5.408;2022-11-11T08:42:18;38.83;;;18.17;;
19199;SDS011;9732;52.498;5.408;2022-11-11T08:44:45;35.67;;;17.70;;
19199;SDS011;9732;52.498;5.408;2022-11-11T08:47:12;37.50;;;17.03;;
19199;SDS011;9732;52.498;5.408;2022-11-11T08:49:39;35.70;;;17.97;;
19199;SDS011;9732;52.498;5.408;2022-11-11T08:52:05;37.20;;;17.03;;
19199;SDS011;9732;52.498;5.408;2022-11-11T08:54:32;34.20;;;17.47;;
19199;SDS011;9732;52.498;5.408;2022-11-11T08:56:59;34.97;;;16.57;;
19199;SDS011;9732;52.498;5.408;2022-11-11T08:59:27;36.03;;;15.57;;
19199;SDS011;9732;52.498;5.408;2022-11-11T09:01:54;34.90;;;15.57;;
19199;SDS011;9732;52.498;5.408;2022-11-11T09:04:20;31.77;;;17.00;;
19199;SDS011;9732;52.498;5.408;2022-11-11T09:06:47;30.90;;;15.47;;
19199;SDS011;9732;52.498;5.408;2022-11-11T09:09:14;29.73;;;15.40;;
19199;SDS011;9732;52.498;5.408;2022-11-11T09:11:41;27.67;;;14.95;;
19199;SDS011;9732;52.498;5.408;2022-11-11T09:14:07;29.20;;;14.70;;
19199;SDS011;9732;52.498;5.408;2022-11-11T09:16:36;27.70;;;13.93;;
19199;SDS011;9732;52.498;5.408;2022-11-11T09:19:02;29.63;;;14.33;;
19199;SDS011;9732;52.498;5.408;2022-11-11T09:21:29;25.48;;;14.23;;
19199;SDS011;9732;52.498;5.408;2022-11-11T09:23:56;29.90;;;14.43;;
19199;SDS011;9732;52.498;5.408;2022-11-11T09:26:24;25.40;;;12.83;;
19199;SDS011;9732;52.498;5.408;2022-11-11T09:28:51;26.45;;;13.70;;
19199;SDS011;9732;52.498;5.408;2022-11-11T09:31:18;28.02;;;13.43;;
19199;SDS011;9732;52.498;5.408;2022-11-11T09:33:46;26.17;;;13.70;;
19199;SDS011;9732;52.498;5.408;2022-11-11T09:36:12;26.07;;;13.77;;
19199;SDS011;9732;52.498;5.408;2022-11-11T09:38:39;29.10;;;13.50;;
19199;SDS011;9732;52.498;5.408;2022-11-11T09:41:09;28.23;;;13.73;;
19199;SDS011;9732;52.498;5.408;2022-11-11T09:43:42;22.95;;;13.32;;
19199;SDS011;9732;52.498;5.408;2022-11-11T09:46:20;26.60;;;13.60;;
19199;SDS011;9732;52.498;5.408;2022-11-11T09:49:06;22.60;;;12.57;;
19199;SDS011;9732;52.498;5.408;2022-11-11T09:51:45;26.83;;;13.77;;
19199;SDS011;9732;52.498;5.408;2022-11-11T09:54:17;24.58;;;14.02;;
19199;SDS011;9732;52.498;5.408;2022-11-11T09:56:48;26.92;;;12.80;;
19199;SDS011;9732;52.498;5.408;2022-11-11T09:59:16;26.65;;;14.10;;
19199;SDS011;9732;52.498;5.408;2022-11-11T10:01:47;25.67;;;13.57;;
19199;SDS011;9732;52.498;5.408;2022-11-11T10:04:26;23.58;;;12.38;;
19199;SDS011;9732;52.498;5.408;2022-11-11T10:06:59;26.73;;;13.97;;
19199;SDS011;9732;52.498;5.408;2022-11-11T10:09:32;24.63;;;12.73;;
19199;SDS011;9732;52.498;5.408;2022-11-11T10:12:06;24.42;;;11.98;;
19199;SDS011;9732;52.498;5.408;2022-11-11T10:14:37;28.93;;;13.50;;
19199;SDS011;9732;52.498;5.408;2022-11-11T10:17:08;23.33;;;12.67;;
19199;SDS011;9732;52.498;5.408;2022-11-11T10:19:49;25.60;;;12.98;;
19199;SDS011;9732;52.498;5.408;2022-11-11T10:22:22;28.27;;;14.15;;
19199;SDS011;9732;52.498;5.408;2022-11-11T10:24:57;29.10;;;14.10;;
19199;SDS011;9732;52.498;5.408;2022-11-11T10:27:32;29.15;;;14.23;;
19199;SDS011;9732;52.498;5.408;2022-11-11T10:29:59;32.57;;;14.17;;
19199;SDS011;9732;52.498;5.408;2022-11-11T10:32:32;26.20;;;14.17;;
19199;SDS011;9732;52.498;5.408;2022-11-11T10:35:12;30.70;;;14.55;;
19199;SDS011;9732;52.498;5.408;2022-11-11T10:37:42;29.33;;;13.87;;
19199;SDS011;9732;52.498;5.408;2022-11-11T10:40:11;27.27;;;13.00;;
19199;SDS011;9732;52.498;5.408;2022-11-11T10:42:43;30.73;;;15.10;;
19199;SDS011;9732;52.498;5.408;2022-11-11T10:45:10;30.70;;;14.97;;
19199;SDS011;9732;52.498;5.408;2022-11-11T10:47:44;29.53;;;14.60;;
19199;SDS011;9732;52.498;5.408;2022-11-11T10:50:20;28.23;;;14.98;;
19199;SDS011;9732;52.498;5.408;2022-11-11T10:52:53;29.50;;;13.88;;
19199;SDS011;9732;52.498;5.408;2022-11-11T10:55:26;29.07;;;15.20;;
19199;SDS011;9732;52.498;5.408;2022-11-11T10:57:59;27.92;;;14.65;;
19199;SDS011;9732;52.498;5.408;2022-11-11T11:00:33;32.78;;;15.38;;
19199;SDS011;9732;52.498;5.408;2022-11-11T11:03:04;33.40;;;14.80;;
19199;SDS011;9732;52.498;5.408;2022-11-11T11:05:40;31.30;;;14.80;;
19199;SDS011;9732;52.498;5.408;2022-11-11T11:08:11;31.43;;;15.63;;
19199;SDS011;9732;52.498;5.408;2022-11-11T11:10:42;29.52;;;14.98;;
19199;SDS011;9732;52.498;5.408;2022-11-11T11:13:14;27.17;;;13.77;;
19199;SDS011;9732;52.498;5.408;2022-11-11T11:15:43;35.63;;;16.27;;
19199;SDS011;9732;52.498;5.408;2022-11-11T11:18:15;31.90;;;15.13;;
19199;SDS011;9732;52.498;5.408;2022-11-11T11:20:55;26.52;;;15.15;;
19199;SDS011;9732;52.498;5.408;2022-11-11T11:23:35;34.83;;;15.48;;
19199;SDS011;9732;52.498;5.408;2022-11-11T11:26:04;33.58;;;15.38;;
19199;SDS011;9732;52.498;5.408;2022-11-11T11:28:31;30.70;;;15.50;;
19199;SDS011;9732;52.498;5.408;2022-11-11T11:31:00;31.00;;;15.23;;
19199;SDS011;9732;52.498;5.408;2022-11-11T11:33:34;34.10;;;16.00;;
19199;SDS011;9732;52.498;5.408;2022-11-11T11:36:17;28.70;;;13.97;;
19199;SDS011;9732;52.498;5.408;2022-11-11T11:38:44;28.60;;;15.00;;
19199;SDS011;9732;52.498;5.408;2022-11-11T11:41:14;28.65;;;14.65;;
19199;SDS011;9732;52.498;5.408;2022-11-11T11:43:41;34.78;;;13.88;;
19199;SDS011;9732;52.498;5.408;2022-11-11T11:46:13;28.73;;;14.57;;
19199;SDS011;9732;52.498;5.408;2022-11-11T11:48:48;30.50;;;14.67;;
19199;SDS011;9732;52.498;5.408;2022-11-11T11:51:30;28.95;;;15.38;;
19199;SDS011;9732;52.498;5.408;2022-11-11T11:54:03;28.90;;;15.15;;
19199;SDS011;9732;52.498;5.408;2022-11-11T11:56:41;26.33;;;14.45;;
19199;SDS011;9732;52.498;5.408;2022-11-11T11:59:12;29.67;;;13.98;;
19199;SDS011;9732;52.498;5.408;2022-11-11T12:01:45;34.10;;;15.37;;
19199;SDS011;9732;52.498;5.408;2022-11-11T12:07:13;27.70;;;14.67;;
19199;SDS011;9732;52.498;5.408;2022-11-11T12:09:52;32.30;;;15.00;;
19199;SDS011;9732;52.498;5.408;2022-11-11T12:12:28;31.88;;;14.65;;
19199;SDS011;9732;52.498;5.408;2022-11-11T12:15:06;25.63;;;13.43;;
19199;SDS011;9732;52.498;5.408;2022-11-11T12:17:43;28.40;;;14.77;;
19199;SDS011;9732;52.498;5.408;2022-11-11T12:20:19;29.60;;;14.90;;
19199;SDS011;9732;52.498;5.408;2022-11-11T12:22:56;29.50;;;15.50;;
19199;SDS011;9732;52.498;5.408;2022-11-11T12:25:36;28.83;;;16.40;;
19199;SDS011;9732;52.498;5.408;2022-11-11T12:28:16;28.45;;;14.77;;
19199;SDS011;9732;52.498;5.408;2022-11-11T12:30:55;30.48;;;13.88;;
19199;SDS011;9732;52.498;5.408;2022-11-11T12:33:35;25.58;;;13.07;;
19199;SDS011;9732;52.498;5.408;2022-11-11T12:36:19;29.13;;;13.73;;
19199;SDS011;9732;52.498;5.408;2022-11-11T12:38:57;33.58;;;14.68;;
19199;SDS011;9732;52.498;5.408;2022-11-11T12:41:38;25.52;;;14.10;;
19199;SDS011;9732;52.498;5.408;2022-11-11T12:44:13;25.73;;;14.20;;
19199;SDS011;9732;52.498;5.408;2022-11-11T12:46:53;31.63;;;15.23;;
19199;SDS011;9732;52.498;5.408;2022-11-11T12:49:39;26.83;;;14.48;;
19199;SDS011;9732;52.498;5.408;2022-11-11T12:52:16;29.48;;;15.02;;
19199;SDS011;9732;52.498;5.408;2022-11-11T12:55:00;29.50;;;14.35;;
19199;SDS011;9732;52.498;5.408;2022-11-11T12:57:56;24.75;;;13.90;;
19199;SDS011;9732;52.498;5.408;2022-11-11T13:00:30;29.98;;;14.77;;
19199;SDS011;9732;52.498;5.408;2022-11-11T13:06:22;31.25;;;15.43;;
19199;SDS011;9732;52.498;5.408;2022-11-11T13:09:03;33.47;;;16.17;;
19199;SDS011;9732;52.498;5.408;2022-11-11T13:11:54;35.42;;;15.90;;
19199;SDS011;9732;52.498;5.408;2022-11-11T13:17:18;32.67;;;15.88;;
19199;SDS011;9732;52.498;5.408;2022-11-11T13:19:48;31.67;;;15.68;;
19199;SDS011;9732;52.498;5.408;2022-11-11T13:22:20;30.17;;;16.70;;
19199;SDS011;9732;52.498;5.408;2022-11-11T13:24:49;32.05;;;15.70;;
19199;SDS011;9732;52.498;5.408;2022-11-11T13:27:22;34.80;;;16.10;;
19199;SDS011;9732;52.498;5.408;2022-11-11T13:29:59;30.02;;;16.20;;
19199;SDS011;9732;52.498;5.408;2022-11-11T13:32:33;28.85;;;16.13;;
19199;SDS011;9732;52.498;5.408;2022-11-11T13:35:11;34.92;;;16.05;;
19199;SDS011;9732;52.498;5.408;2022-11-11T13:37:46;31.17;;;16.70;;
19199;SDS011;9732;52.498;5.408;2022-11-11T13:40:31;31.77;;;16.92;;
19199;SDS011;9732;52.498;5.408;2022-11-11T13:43:03;33.45;;;17.35;;
19199;SDS011;9732;52.498;5.408;2022-11-11T13:45:39;36.33;;;17.85;;
19199;SDS011;9732;52.498;5.408;2022-11-11T13:48:14;35.50;;;16.73;;
19199;SDS011;9732;52.498;5.408;2022-11-11T13:50:47;34.47;;;15.95;;
19199;SDS011;9732;52.498;5.408;2022-11-11T13:53:15;28.38;;;16.52;;
19199;SDS011;9732;52.498;5.408;2022-11-11T13:55:51;35.05;;;16.15;;
19199;SDS011;9732;52.498;5.408;2022-11-11T13:58:27;31.20;;;16.15;;
19199;SDS011;9732;52.498;5.408;2022-11-11T14:00:58;36.17;;;17.38;;
19199;SDS011;9732;52.498;5.408;2022-11-11T14:03:30;30.80;;;16.15;;
19199;SDS011;9732;52.498;5.408;2022-11-11T14:08:55;31.33;;;15.65;;
19199;SDS011;9732;52.498;5.408;2022-11-11T14:11:28;30.65;;;14.45;;
19199;SDS011;9732;52.498;5.408;2022-11-11T14:14:34;33.90;;;15.00;;
19199;SDS011;9732;52.498;5.408;2022-11-11T14:17:04;29.08;;;14.20;;
19199;SDS011;9732;52.498;5.408;2022-11-11T14:19:38;27.03;;;14.73;;
19199;SDS011;9732;52.498;5.408;2022-11-11T14:22:22;28.33;;;14.00;;
19199;SDS011;9732;52.498;5.408;2022-11-11T14:24:54;25.17;;;14.02;;
19199;SDS011;9732;52.498;5.408;2022-11-11T14:27:34;31.00;;;14.48;;
19199;SDS011;9732;52.498;5.408;2022-11-11T14:30:02;26.20;;;14.20;;
19199;SDS011;9732;52.498;5.408;2022-11-11T14:32:33;30.20;;;15.85;;
19199;SDS011;9732;52.498;5.408;2022-11-11T14:35:20;30.02;;;15.07;;
19199;SDS011;9732;52.498;5.408;2022-11-11T14:37:56;36.33;;;16.52;;
19199;SDS011;9732;52.498;5.408;2022-11-11T14:40:31;31.30;;;15.75;;
19199;SDS011;9732;52.498;5.408;2022-11-11T14:42:59;32.38;;;16.15;;
19199;SDS011;9732;52.498;5.408;2022-11-11T14:45:51;32.20;;;16.35;;
19199;SDS011;9732;52.498;5.408;2022-11-11T14:54:20;28.08;;;14.68;;
19199;SDS011;9732;52.498;5.408;2022-11-11T14:56:58;26.85;;;14.65;;
19199;SDS011;9732;52.498;5.408;2022-11-11T14:59:29;37.20;;;14.98;;
19199;SDS011;9732;52.498;5.408;2022-11-11T15:01:59;29.48;;;14.68;;
19199;SDS011;9732;52.498;5.408;2022-11-11T15:04:27;30.20;;;14.10;;
19199;SDS011;9732;52.498;5.408;2022-11-11T15:07:13;30.23;;;13.63;;
19199;SDS011;9732;52.498;5.408;2022-11-11T15:10:02;27.60;;;14.20;;
19199;SDS011;9732;52.498;5.408;2022-11-11T15:12:44;30.80;;;13.88;;
19199;SDS011;9732;52.498;5.408;2022-11-11T15:15:40;23.42;;;12.93;;
19199;SDS011;9732;52.498;5.408;2022-11-11T15:18:22;27.42;;;13.52;;
19199;SDS011;9732;52.498;5.408;2022-11-11T15:21:11;25.10;;;13.57;;
19199;SDS011;9732;52.498;5.408;2022-11-11T15:23:58;27.77;;;15.17;;
19199;SDS011;9732;52.498;5.408;2022-11-11T15:26:41;25.87;;;13.30;;